Barnstable, Massachusetts
Current Conditions -  °F | °C
As of 8:56 AM on Saturday 20 Dec 2014 (Local Time) from KHYA Reporting Station
Overcast Overcast  
Wind Chill: 31°   Ceiling: 1200
Heat Index: 35°   Visibility: 10mi
Dew Point: 32°   Wind: 5mph
Humidity: 89%   Direction: 280°W
Pressure: 30.24"   Gusts: NA
Location:  41.7°N, 70.3°W
Report Text: KHYA 201356Z 28004KT 10SM BKN012 OVC021 02/00 A3024 RMK AO2 RAE30 SLP241 P0000 T00170000
Loading
Personal Weather Stations






























Interactive Weather Map New forecast layout! Learn more

10-Day Weather Forecast

Advertisements
Track Severe Weather on mobile